sensor_id;sensor_type;location;lat;lon;timestamp;pressure;altitude;pressure_sealevel;temperature;humidity
55934;BME280;41839;41.386;2.082;2023-04-03T10:46:40;99701.53;;;24.04;26.46
55934;BME280;41839;41.386;2.082;2023-04-03T10:49:27;99702.78;;;23.73;26.67
55934;BME280;41839;41.386;2.082;2023-04-03T10:52:02;99693.88;;;23.84;26.60
55934;BME280;41839;41.386;2.082;2023-04-03T10:54:47;99695.53;;;23.93;26.65
55934;BME280;41839;41.386;2.082;2023-04-03T10:57:14;99684.78;;;24.11;26.54
55934;BME280;41839;41.386;2.082;2023-04-03T10:59:44;99702.91;;;24.34;25.48
55934;BME280;41839;41.386;2.082;2023-04-03T11:02:31;99668.81;;;24.27;25.27
55934;BME280;41839;41.386;2.082;2023-04-03T11:05:06;99688.53;;;24.61;25.50
55934;BME280;41839;41.386;2.082;2023-04-03T11:07:40;99678.94;;;24.59;25.57
55934;BME280;41839;41.386;2.082;2023-04-03T11:10:15;99686.97;;;24.50;25.87
55934;BME280;41839;41.386;2.082;2023-04-03T11:12:48;99684.69;;;24.21;26.33
55934;BME280;41839;41.386;2.082;2023-04-03T11:15:19;99685.25;;;24.47;26.06
55934;BME280;41839;41.386;2.082;2023-04-03T11:20:16;99681.34;;;24.73;26.11
55934;BME280;41839;41.386;2.082;2023-04-03T11:22:47;99632.06;;;24.84;25.22
55934;BME280;41839;41.386;2.082;2023-04-03T11:25:15;99673.50;;;24.68;26.21
55934;BME280;41839;41.386;2.082;2023-04-03T11:33:28;99640.97;;;23.36;27.36
55934;BME280;41839;41.386;2.082;2023-04-03T11:36:18;99651.56;;;23.27;28.02
55934;BME280;41839;41.386;2.082;2023-04-03T11:38:46;99654.78;;;22.49;28.91
55934;BME280;41839;41.386;2.082;2023-04-03T11:41:13;99652.31;;;22.17;29.52
55934;BME280;41839;41.386;2.082;2023-04-03T11:43:56;99635.94;;;21.69;30.00
55934;BME280;41839;41.386;2.082;2023-04-03T11:46:22;99620.31;;;21.07;30.87
55934;BME280;41839;41.386;2.082;2023-04-03T11:52:12;99630.78;;;21.00;30.95
55934;BME280;41839;41.386;2.082;2023-04-03T12:13:42;99616.81;;;20.53;32.05
55934;BME280;41839;41.386;2.082;2023-04-03T12:35:12;99610.75;;;20.79;32.95
55934;BME280;41839;41.386;2.082;2023-04-03T12:48:28;99591.59;;;20.63;34.07
55934;BME280;41839;41.386;2.082;2023-04-03T12:50:57;99585.44;;;20.48;33.14
55934;BME280;41839;41.386;2.082;2023-04-03T12:53:33;99543.50;;;19.75;33.75
55934;BME280;41839;41.386;2.082;2023-04-03T12:56:38;99592.31;;;19.96;33.28
55934;BME280;41839;41.386;2.082;2023-04-03T13:01:39;99576.59;;;19.80;34.36
55934;BME280;41839;41.386;2.082;2023-04-03T13:04:05;99585.28;;;19.76;34.48
55934;BME280;41839;41.386;2.082;2023-04-03T13:06:40;99586.16;;;19.77;35.15
55934;BME280;41839;41.386;2.082;2023-04-03T13:09:27;99572.13;;;19.58;34.92
55934;BME280;41839;41.386;2.082;2023-04-03T13:11:58;99566.81;;;19.40;36.10
55934;BME280;41839;41.386;2.082;2023-04-03T13:14:26;99571.38;;;19.84;35.63
55934;BME280;41839;41.386;2.082;2023-04-03T13:17:02;99573.81;;;19.50;36.28
55934;BME280;41839;41.386;2.082;2023-04-03T13:19:29;99583.44;;;19.60;36.13
55934;BME280;41839;41.386;2.082;2023-04-03T13:24:30;99574.03;;;20.03;36.83
55934;BME280;41839;41.386;2.082;2023-04-03T13:26:57;99570.56;;;20.00;35.60
55934;BME280;41839;41.386;2.082;2023-04-03T13:29:34;99570.59;;;20.11;36.17
55934;BME280;41839;41.386;2.082;2023-04-03T13:32:01;99561.06;;;20.36;36.03
55934;BME280;41839;41.386;2.082;2023-04-03T13:34:34;99559.22;;;19.86;36.34
55934;BME280;41839;41.386;2.082;2023-04-03T13:37:01;99519.03;;;19.42;37.08
55934;BME280;41839;41.386;2.082;2023-04-03T13:39:34;99550.50;;;19.82;39.24
55934;BME280;41839;41.386;2.082;2023-04-03T13:42:02;99562.75;;;20.04;38.19
55934;BME280;41839;41.386;2.082;2023-04-03T13:44:39;99524.38;;;19.73;37.36
55934;BME280;41839;41.386;2.082;2023-04-03T13:47:21;99548.72;;;19.70;38.60
55934;BME280;41839;41.386;2.082;2023-04-03T13:50:14;99545.25;;;19.71;38.34
55934;BME280;41839;41.386;2.082;2023-04-03T13:52:48;99540.91;;;19.76;38.55
55934;BME280;41839;41.386;2.082;2023-04-03T13:55:24;99543.41;;;19.52;37.92
55934;BME280;41839;41.386;2.082;2023-04-03T13:57:54;99557.25;;;19.35;38.26
55934;BME280;41839;41.386;2.082;2023-04-03T14:01:00;99546.03;;;19.55;40.46
55934;BME280;41839;41.386;2.082;2023-04-03T14:06:17;99548.75;;;19.81;36.95
55934;BME280;41839;41.386;2.082;2023-04-03T14:08:44;99540.97;;;19.98;35.49
55934;BME280;41839;41.386;2.082;2023-04-03T14:11:24;99560.13;;;20.09;38.57
55934;BME280;41839;41.386;2.082;2023-04-03T14:16:15;99538.34;;;19.86;35.68
55934;BME280;41839;41.386;2.082;2023-04-03T14:18:43;99551.31;;;19.66;37.35
55934;BME280;41839;41.386;2.082;2023-04-03T14:21:30;99546.13;;;19.76;35.43
55934;BME280;41839;41.386;2.082;2023-04-03T14:23:56;99496.38;;;19.33;37.78
55934;BME280;41839;41.386;2.082;2023-04-03T14:26:23;99527.75;;;19.55;37.43
55934;BME280;41839;41.386;2.082;2023-04-03T14:28:52;99539.78;;;19.22;37.00
55934;BME280;41839;41.386;2.082;2023-04-03T14:31:19;99544.97;;;19.15;37.53
55934;BME280;41839;41.386;2.082;2023-04-03T14:33:45;99539.16;;;19.71;36.48
55934;BME280;41839;41.386;2.082;2023-04-03T14:36:14;99533.19;;;20.25;37.47
55934;BME280;41839;41.386;2.082;2023-04-03T14:38:41;99494.00;;;20.27;35.73
55934;BME280;41839;41.386;2.082;2023-04-03T14:41:08;99503.50;;;19.74;38.15
55934;BME280;41839;41.386;2.082;2023-04-03T14:43:35;99489.50;;;19.63;36.93
55934;BME280;41839;41.386;2.082;2023-04-03T14:46:01;99523.41;;;19.52;36.63
55934;BME280;41839;41.386;2.082;2023-04-03T14:49:51;99508.69;;;19.65;37.93
55934;BME280;41839;41.386;2.082;2023-04-03T14:53:23;99502.50;;;19.48;37.72
55934;BME280;41839;41.386;2.082;2023-04-03T14:56:23;99487.84;;;19.77;41.04
55934;BME280;41839;41.386;2.082;2023-04-03T14:58:55;99501.81;;;20.02;40.37
55934;BME280;41839;41.386;2.082;2023-04-03T15:03:32;99511.41;;;20.36;37.57
55934;BME280;41839;41.386;2.082;2023-04-03T15:05:58;99517.50;;;20.44;36.11
55934;BME280;41839;41.386;2.082;2023-04-03T15:08:26;99514.88;;;20.12;36.15
55934;BME280;41839;41.386;2.082;2023-04-03T15:10:54;99468.63;;;19.60;36.13
55934;BME280;41839;41.386;2.082;2023-04-03T15:13:22;99501.81;;;20.04;36.36
55934;BME280;41839;41.386;2.082;2023-04-03T15:15:49;99504.44;;;20.04;36.37
55934;BME280;41839;41.386;2.082;2023-04-03T15:18:21;99498.34;;;20.17;35.81
55934;BME280;41839;41.386;2.082;2023-04-03T15:20:47;99500.06;;;20.09;36.34
55934;BME280;41839;41.386;2.082;2023-04-03T15:23:14;99498.28;;;19.91;39.65
55934;BME280;41839;41.386;2.082;2023-04-03T15:25:42;99495.66;;;19.71;38.23
55934;BME280;41839;41.386;2.082;2023-04-03T15:28:13;99500.00;;;19.65;38.97
55934;BME280;41839;41.386;2.082;2023-04-03T15:30:43;99473.09;;;19.98;40.22
55934;BME280;41839;41.386;2.082;2023-04-03T15:33:08;99494.00;;;20.16;37.73
55934;BME280;41839;41.386;2.082;2023-04-03T15:35:33;99494.00;;;20.48;39.46
55934;BME280;41839;41.386;2.082;2023-04-03T15:39:19;99492.28;;;20.72;38.13
55934;BME280;41839;41.386;2.082;2023-04-03T15:43:48;99487.03;;;20.38;35.91
55934;BME280;41839;41.386;2.082;2023-04-03T15:46:13;99480.94;;;20.12;36.69
55934;BME280;41839;41.386;2.082;2023-04-03T15:48:39;99473.97;;;19.92;35.94
55934;BME280;41839;41.386;2.082;2023-04-03T15:51:05;99442.59;;;19.71;36.33
55934;BME280;41839;41.386;2.082;2023-04-03T15:54:24;99462.53;;;19.59;36.20
55934;BME280;41839;41.386;2.082;2023-04-03T15:59:31;99453.88;;;19.61;37.55
55934;BME280;41839;41.386;2.082;2023-04-03T16:01:58;99472.94;;;19.44;36.90
55934;BME280;41839;41.386;2.082;2023-04-03T16:04:25;99474.66;;;19.38;37.05
55934;BME280;41839;41.386;2.082;2023-04-03T16:06:51;99468.44;;;19.05;35.11
55934;BME280;41839;41.386;2.082;2023-04-03T16:10:03;99476.38;;;19.29;34.70
55934;BME280;41839;41.386;2.082;2023-04-03T16:12:28;99470.31;;;19.37;35.89
55934;BME280;41839;41.386;2.082;2023-04-03T16:14:54;99480.78;;;19.56;35.45
55934;BME280;41839;41.386;2.082;2023-04-03T16:17:19;99477.22;;;19.31;34.56
55934;BME280;41839;41.386;2.082;2023-04-03T16:19:45;99444.13;;;19.10;32.42
55934;BME280;41839;41.386;2.082;2023-04-03T16:22:10;99482.50;;;19.47;33.09
55934;BME280;41839;41.386;2.082;2023-04-03T16:24:36;99474.72;;;19.56;34.01
55934;BME280;41839;41.386;2.082;2023-04-03T16:27:03;99482.53;;;19.48;34.19
55934;BME280;41839;41.386;2.082;2023-04-03T16:29:28;99471.25;;;19.58;33.96
55934;BME280;41839;41.386;2.082;2023-04-03T16:31:54;99478.19;;;19.49;34.48
55934;BME280;41839;41.386;2.082;2023-04-03T16:34:20;99476.41;;;19.48;34.99
55934;BME280;41839;41.386;2.082;2023-04-03T16:36:45;99469.38;;;19.22;35.01
55934;BME280;41839;41.386;2.082;2023-04-03T16:39:11;99479.84;;;19.30;34.37
55934;BME280;41839;41.386;2.082;2023-04-03T16:41:36;99480.78;;;19.49;33.27
55934;BME280;41839;41.386;2.082;2023-04-03T16:44:02;99478.16;;;19.44;35.09
55934;BME280;41839;41.386;2.082;2023-04-03T16:46:27;99474.59;;;19.25;35.58
55934;BME280;41839;41.386;2.082;2023-04-03T16:48:53;99470.25;;;19.29;36.12
55934;BME280;41839;41.386;2.082;2023-04-03T16:51:18;99478.03;;;19.12;36.62
55934;BME280;41839;41.386;2.082;2023-04-03T16:53:44;99478.81;;;18.93;36.39
55934;BME280;41839;41.386;2.082;2023-04-03T16:56:09;99453.31;;;18.52;37.09
55934;BME280;41839;41.386;2.082;2023-04-03T16:58:35;99476.00;;;18.65;37.78
55934;BME280;41839;41.386;2.082;2023-04-03T17:01:17;99469.78;;;18.48;37.92
55934;BME280;41839;41.386;2.082;2023-04-03T17:03:43;99480.31;;;18.58;37.33
55934;BME280;41839;41.386;2.082;2023-04-03T17:06:11;99482.75;;;18.41;36.85
55934;BME280;41839;41.386;2.082;2023-04-03T17:08:45;99483.59;;;18.36;37.79
55934;BME280;41839;41.386;2.082;2023-04-03T17:11:11;99470.50;;;18.27;37.64
55934;BME280;41839;41.386;2.082;2023-04-03T17:13:37;99492.41;;;18.53;37.31
55934;BME280;41839;41.386;2.082;2023-04-03T17:16:05;99484.72;;;18.72;37.15
55934;BME280;41839;41.386;2.082;2023-04-03T17:18:33;99486.41;;;18.63;37.11
55934;BME280;41839;41.386;2.082;2023-04-03T17:20:59;99485.44;;;18.51;36.20
55934;BME280;41839;41.386;2.082;2023-04-03T17:23:27;99487.06;;;18.35;37.34
55934;BME280;41839;41.386;2.082;2023-04-03T17:25:54;99482.72;;;18.35;38.31
55934;BME280;41839;41.386;2.082;2023-04-03T17:28:22;99493.13;;;18.34;38.57
55934;BME280;41839;41.386;2.082;2023-04-03T17:30:57;99480.88;;;18.22;39.11
55934;BME280;41839;41.386;2.082;2023-04-03T17:33:23;99474.84;;;18.29;38.71
55934;BME280;41839;41.386;2.082;2023-04-03T17:35:49;99451.94;;;17.85;38.95
55934;BME280;41839;41.386;2.082;2023-04-03T17:38:14;99466.84;;;18.03;38.50
55934;BME280;41839;41.386;2.082;2023-04-03T17:40:40;99472.19;;;18.18;38.65
55934;BME280;41839;41.386;2.082;2023-04-03T17:43:05;99463.34;;;18.01;39.49
55934;BME280;41839;41.386;2.082;2023-04-03T17:45:31;99474.56;;;17.95;39.72
55934;BME280;41839;41.386;2.082;2023-04-03T17:47:57;99483.38;;;18.10;40.11
55934;BME280;41839;41.386;2.082;2023-04-03T17:50:22;99486.09;;;18.24;39.70
55934;BME280;41839;41.386;2.082;2023-04-03T17:52:48;99484.47;;;18.35;39.17
55934;BME280;41839;41.386;2.082;2023-04-03T17:55:14;99470.53;;;18.31;39.59
55934;BME280;41839;41.386;2.082;2023-04-03T17:57:42;99477.41;;;18.23;42.96
55934;BME280;41839;41.386;2.082;2023-04-03T18:00:08;99463.56;;;18.29;41.73
55934;BME280;41839;41.386;2.082;2023-04-03T18:02:34;99467.91;;;18.30;42.49
55934;BME280;41839;41.386;2.082;2023-04-03T18:05:00;99457.31;;;18.08;43.21
55934;BME280;41839;41.386;2.082;2023-04-03T18:07:26;99476.53;;;18.19;42.79
55934;BME280;41839;41.386;2.082;2023-04-03T18:09:52;99465.91;;;17.93;43.83
55934;BME280;41839;41.386;2.082;2023-04-03T18:12:19;99471.13;;;17.98;45.25
55934;BME280;41839;41.386;2.082;2023-04-03T18:14:45;99468.53;;;18.01;44.66
55934;BME280;41839;41.386;2.082;2023-04-03T18:17:11;99483.09;;;17.78;44.11
55934;BME280;41839;41.386;2.082;2023-04-03T18:19:36;99478.00;;;17.93;46.38
55934;BME280;41839;41.386;2.082;2023-04-03T18:22:06;99447.47;;;17.77;45.38
55934;BME280;41839;41.386;2.082;2023-04-03T18:24:33;99475.16;;;17.70;45.95
55934;BME280;41839;41.386;2.082;2023-04-03T18:27:03;99447.84;;;17.29;46.06
55934;BME280;41839;41.386;2.082;2023-04-03T18:30:09;99492.44;;;17.63;46.62
55934;BME280;41839;41.386;2.082;2023-04-03T18:32:35;99495.84;;;17.59;47.51
55934;BME280;41839;41.386;2.082;2023-04-03T18:35:01;99489.97;;;17.75;46.01
55934;BME280;41839;41.386;2.082;2023-04-03T18:37:26;99493.50;;;17.79;46.79
55934;BME280;41839;41.386;2.082;2023-04-03T18:39:52;99496.41;;;18.10;45.89
55934;BME280;41839;41.386;2.082;2023-04-03T18:42:18;99493.09;;;18.28;46.26
55934;BME280;41839;41.386;2.082;2023-04-03T18:44:46;99503.66;;;18.48;44.95
55934;BME280;41839;41.386;2.082;2023-04-03T18:47:12;99498.47;;;18.49;44.61
55934;BME280;41839;41.386;2.082;2023-04-03T18:49:38;99498.56;;;18.63;45.68
55934;BME280;41839;41.386;2.082;2023-04-03T18:52:05;99414.81;;;18.06;44.51
55934;BME280;41839;41.386;2.082;2023-04-03T18:54:31;99517.63;;;18.59;43.37
55934;BME280;41839;41.386;2.082;2023-04-03T18:56:56;99500.16;;;18.46;44.61
55934;BME280;41839;41.386;2.082;2023-04-03T19:00:25;99522.16;;;18.77;45.53
55934;BME280;41839;41.386;2.082;2023-04-03T19:02:51;99533.31;;;18.65;46.00
55934;BME280;41839;41.386;2.082;2023-04-03T19:05:17;99529.72;;;18.49;43.42
55934;BME280;41839;41.386;2.082;2023-04-03T19:07:50;99539.66;;;17.97;45.31
55934;BME280;41839;41.386;2.082;2023-04-03T19:10:15;99539.44;;;17.80;45.07
55934;BME280;41839;41.386;2.082;2023-04-03T19:12:44;99528.94;;;17.74;45.08
55934;BME280;41839;41.386;2.082;2023-04-03T19:15:28;99523.94;;;17.88;45.43
55934;BME280;41839;41.386;2.082;2023-04-03T19:17:53;99534.03;;;17.63;45.75
55934;BME280;41839;41.386;2.082;2023-04-03T19:20:19;99538.91;;;17.37;46.30
55934;BME280;41839;41.386;2.082;2023-04-03T19:22:44;99535.56;;;17.44;46.37
55934;BME280;41839;41.386;2.082;2023-04-03T19:25:10;99541.59;;;17.42;46.22
55934;BME280;41839;41.386;2.082;2023-04-03T19:27:36;99550.84;;;17.20;46.76
55934;BME280;41839;41.386;2.082;2023-04-03T19:30:02;99546.28;;;17.03;47.57
55934;BME280;41839;41.386;2.082;2023-04-03T19:32:28;99536.72;;;17.01;47.86
55934;BME280;41839;41.386;2.082;2023-04-03T19:34:55;99545.09;;;16.85;48.35
55934;BME280;41839;41.386;2.082;2023-04-03T19:37:39;99551.00;;;16.74;49.10
55934;BME280;41839;41.386;2.082;2023-04-03T19:40:05;99553.19;;;16.48;50.01
55934;BME280;41839;41.386;2.082;2023-04-03T19:42:31;99548.88;;;16.50;50.20
55934;BME280;41839;41.386;2.082;2023-04-03T19:44:57;99536.66;;;16.43;50.49
55934;BME280;41839;41.386;2.082;2023-04-03T19:47:23;99556.53;;;16.43;51.09
55934;BME280;41839;41.386;2.082;2023-04-03T19:49:49;99546.72;;;16.25;51.30
55934;BME280;41839;41.386;2.082;2023-04-03T19:52:15;99558.88;;;16.27;51.71
55934;BME280;41839;41.386;2.082;2023-04-03T19:54:40;99558.59;;;16.12;52.46
55934;BME280;41839;41.386;2.082;2023-04-03T19:57:06;99543.16;;;16.18;52.00
55934;BME280;41839;41.386;2.082;2023-04-03T19:59:33;99548.75;;;16.43;51.67
55934;BME280;41839;41.386;2.082;2023-04-03T20:01:58;99556.81;;;16.58;51.40
55934;BME280;41839;41.386;2.082;2023-04-03T20:04:24;99544.69;;;16.58;51.23
55934;BME280;41839;41.386;2.082;2023-04-03T20:06:50;99558.91;;;16.80;50.88
55934;BME280;41839;41.386;2.082;2023-04-03T20:09:16;99550.38;;;16.89;50.40
55934;BME280;41839;41.386;2.082;2023-04-03T20:11:43;99530.75;;;16.53;51.14
55934;BME280;41839;41.386;2.082;2023-04-03T20:14:12;99557.88;;;16.71;50.98
55934;BME280;41839;41.386;2.082;2023-04-03T20:16:38;99558.72;;;16.70;51.26
55934;BME280;41839;41.386;2.082;2023-04-03T20:19:04;99556.34;;;16.82;50.83
55934;BME280;41839;41.386;2.082;2023-04-03T20:21:32;99554.00;;;16.99;51.52
55934;BME280;41839;41.386;2.082;2023-04-03T20:23:59;99562.81;;;17.10;52.24
55934;BME280;41839;41.386;2.082;2023-04-03T20:26:27;99558.78;;;17.32;52.01
55934;BME280;41839;41.386;2.082;2023-04-03T20:28:55;99554.53;;;17.39;50.69
55934;BME280;41839;41.386;2.082;2023-04-03T20:31:21;99544.25;;;17.49;51.56
55934;BME280;41839;41.386;2.082;2023-04-03T20:33:47;99566.28;;;17.74;49.93
55934;BME280;41839;41.386;2.082;2023-04-03T20:36:14;99563.66;;;17.74;49.84
55934;BME280;41839;41.386;2.082;2023-04-03T20:38:41;99564.50;;;17.73;49.10
55934;BME280;41839;41.386;2.082;2023-04-03T20:41:07;99569.75;;;17.77;49.23
55934;BME280;41839;41.386;2.082;2023-04-03T20:43:33;99541.09;;;17.72;50.75
55934;BME280;41839;41.386;2.082;2023-04-03T20:46:00;99554.34;;;17.92;50.53
55934;BME280;41839;41.386;2.082;2023-04-03T20:50:11;99509.91;;;17.77;48.43
55934;BME280;41839;41.386;2.082;2023-04-03T20:52:36;99545.88;;;18.14;48.14
55934;BME280;41839;41.386;2.082;2023-04-03T20:55:03;99559.03;;;18.25;50.10
55934;BME280;41839;41.386;2.082;2023-04-03T20:57:45;99542.44;;;18.17;48.91
55934;BME280;41839;41.386;2.082;2023-04-03T21:00:11;99552.13;;;18.30;47.62
55934;BME280;41839;41.386;2.082;2023-04-03T21:04:15;99549.47;;;18.24;49.45
55934;BME280;41839;41.386;2.082;2023-04-03T21:19:54;99547.09;;;18.52;47.89
55934;BME280;41839;41.386;2.082;2023-04-03T21:22:19;99528.81;;;18.47;47.61
55934;BME280;41839;41.386;2.082;2023-04-03T21:24:45;99529.72;;;18.49;47.30
55934;BME280;41839;41.386;2.082;2023-04-03T21:27:11;99542.91;;;18.72;47.00
55934;BME280;41839;41.386;2.082;2023-04-03T21:29:36;99541.19;;;18.71;48.49
55934;BME280;41839;41.386;2.082;2023-04-03T21:32:02;99533.25;;;18.60;49.13
55934;BME280;41839;41.386;2.082;2023-04-03T21:34:28;99532.34;;;18.52;48.60
55934;BME280;41839;41.386;2.082;2023-04-03T21:37:01;99539.28;;;18.53;49.60
55934;BME280;41839;41.386;2.082;2023-04-03T21:39:28;99505.25;;;18.29;48.01
55934;BME280;41839;41.386;2.082;2023-04-03T21:41:53;99537.59;;;18.55;48.39
55934;BME280;41839;41.386;2.082;2023-04-03T21:44:19;99538.47;;;18.59;47.23
55934;BME280;41839;41.386;2.082;2023-04-03T21:46:45;99544.59;;;18.67;46.90
55934;BME280;41839;41.386;2.082;2023-04-03T21:49:12;99534.19;;;18.65;46.46
55934;BME280;41839;41.386;2.082;2023-04-03T21:51:37;99534.28;;;18.75;46.45
55934;BME280;41839;41.386;2.082;2023-04-03T21:54:03;99531.72;;;18.85;48.10
55934;BME280;41839;41.386;2.082;2023-04-03T21:56:29;99523.91;;;18.81;46.16
55934;BME280;41839;41.386;2.082;2023-04-03T22:00:10;99528.25;;;18.80;47.07
55934;BME280;41839;41.386;2.082;2023-04-03T22:02:56;99507.25;;;18.63;46.65
55934;BME280;41839;41.386;2.082;2023-04-03T22:05:21;99523.00;;;18.77;47.07
55934;BME280;41839;41.386;2.082;2023-04-03T22:07:46;99523.03;;;18.80;46.72
55934;BME280;41839;41.386;2.082;2023-04-03T22:10:12;99518.78;;;18.93;47.00
55934;BME280;41839;41.386;2.082;2023-04-03T22:12:39;99507.44;;;18.91;46.36
55934;BME280;41839;41.386;2.082;2023-04-03T22:17:06;99509.28;;;19.07;47.14
55934;BME280;41839;41.386;2.082;2023-04-03T22:19:31;99508.34;;;18.98;44.65
55934;BME280;41839;41.386;2.082;2023-04-03T22:21:57;99505.63;;;18.79;44.34
55934;BME280;41839;41.386;2.082;2023-04-03T22:24:22;99504.63;;;18.62;44.81
55934;BME280;41839;41.386;2.082;2023-04-03T22:26:47;99502.84;;;18.56;44.63
55934;BME280;41839;41.386;2.082;2023-04-03T22:29:13;99507.13;;;18.47;44.22
55934;BME280;41839;41.386;2.082;2023-04-03T22:32:04;99510.47;;;18.33;44.41
55934;BME280;41839;41.386;2.082;2023-04-03T22:34:29;99511.28;;;18.26;44.17
55934;BME280;41839;41.386;2.082;2023-04-03T22:38:52;99512.03;;;18.14;44.55
55934;BME280;41839;41.386;2.082;2023-04-03T22:41:18;99503.31;;;18.06;44.29
55934;BME280;41839;41.386;2.082;2023-04-03T22:43:43;99511.88;;;17.96;44.25
55934;BME280;41839;41.386;2.082;2023-04-03T22:46:09;99511.00;;;17.94;43.61
55934;BME280;41839;41.386;2.082;2023-04-03T22:48:35;99507.50;;;17.92;43.40
55934;BME280;41839;41.386;2.082;2023-04-03T22:51:03;99508.28;;;17.86;42.83
55934;BME280;41839;41.386;2.082;2023-04-03T22:53:30;99502.22;;;17.84;42.69
55934;BME280;41839;41.386;2.082;2023-04-03T22:56:13;99509.16;;;17.85;42.68
55934;BME280;41839;41.386;2.082;2023-04-03T22:58:38;99505.69;;;17.85;42.50
55934;BME280;41839;41.386;2.082;2023-04-03T23:03:35;99506.38;;;17.68;42.42
55934;BME280;41839;41.386;2.082;2023-04-03T23:06:01;99507.22;;;17.70;42.16
55934;BME280;41839;41.386;2.082;2023-04-03T23:08:27;99508.06;;;17.68;42.33
55934;BME280;41839;41.386;2.082;2023-04-03T23:10:53;99511.53;;;17.67;42.25
55934;BME280;41839;41.386;2.082;2023-04-03T23:13:19;99509.81;;;17.67;42.19
55934;BME280;41839;41.386;2.082;2023-04-03T23:15:50;99513.19;;;17.60;42.44
55934;BME280;41839;41.386;2.082;2023-04-03T23:18:16;99513.16;;;17.57;42.49
55934;BME280;41839;41.386;2.082;2023-04-03T23:20:41;99507.84;;;17.48;42.37
55934;BME280;41839;41.386;2.082;2023-04-03T23:23:06;99502.63;;;17.46;42.18
55934;BME280;41839;41.386;2.082;2023-04-03T23:25:32;99503.56;;;17.50;41.73
55934;BME280;41839;41.386;2.082;2023-04-03T23:27:57;99507.00;;;17.47;41.51
55934;BME280;41839;41.386;2.082;2023-04-03T23:30:22;99508.69;;;17.44;41.39
55934;BME280;41839;41.386;2.082;2023-04-03T23:32:48;99508.69;;;17.44;41.14
55934;BME280;41839;41.386;2.082;2023-04-03T23:35:13;99507.75;;;17.39;41.45
55934;BME280;41839;41.386;2.082;2023-04-03T23:37:38;99510.19;;;17.28;41.65
55934;BME280;41839;41.386;2.082;2023-04-03T23:40:04;99502.44;;;17.29;41.67
55934;BME280;41839;41.386;2.082;2023-04-03T23:42:30;99501.56;;;17.31;41.45
55934;BME280;41839;41.386;2.082;2023-04-03T23:44:56;99503.28;;;17.28;41.54
55934;BME280;41839;41.386;2.082;2023-04-03T23:47:21;99499.94;;;17.39;41.17
55934;BME280;41839;41.386;2.082;2023-04-03T23:49:46;99504.25;;;17.35;41.07
55934;BME280;41839;41.386;2.082;2023-04-03T23:52:12;99503.38;;;17.35;41.37
55934;BME280;41839;41.386;2.082;2023-04-03T23:54:37;99498.94;;;17.27;41.68
55934;BME280;41839;41.386;2.082;2023-04-03T23:57:02;99503.22;;;17.24;41.58
55934;BME280;41839;41.386;2.082;2023-04-03T23:59:28;99503.22;;;17.22;41.66
